Time;durP1;ratioP1;P1;durP2;ratioP2;P2;SDS_P1;SDS_P2;PMS_P1;PMS_P2;Temp;Humidity;BMP_temperature;BMP_pressure;BME280_temperature;BME280_humidity;BME280_pressure;Samples;Min_cycle;Max_cycle;Signal;HPM_P1;HPM_P2
2021/07/11 00:00:46;;;;;;;22.57;16.23;;;17.80;99.90;;;;;;4996409;28;20684;-50
2021/07/11 00:03:12;;;;;;;18.57;15.17;;;17.70;99.90;;;;;;4999018;28;20285;-50
2021/07/11 00:05:39;;;;;;;23.50;15.70;;;17.60;99.90;;;;;;4997909;28;20302;-51
2021/07/11 00:08:06;;;;;;;26.40;16.77;;;17.50;99.90;;;;;;4998949;28;20211;-51
2021/07/11 00:10:33;;;;;;;23.53;17.10;;;17.60;99.90;;;;;;4997218;28;20329;-50
2021/07/11 00:13:00;;;;;;;19.53;15.23;;;17.60;99.90;;;;;;4995139;28;20241;-51
2021/07/11 00:15:27;;;;;;;19.93;15.47;;;17.60;99.90;;;;;;4997222;28;20737;-51
2021/07/11 00:17:55;;;;;;;18.00;15.03;;;17.70;99.90;;;;;;4995808;28;20251;-51
2021/07/11 00:20:24;;;;;;;19.33;15.57;;;17.70;99.90;;;;;;4997214;28;20275;-51
2021/07/11 00:22:51;;;;;;;20.17;15.43;;;17.70;99.90;;;;;;4991768;28;20351;-51
2021/07/11 00:25:18;;;;;;;21.73;15.87;;;17.80;99.90;;;;;;4997540;28;20712;-51
2021/07/11 00:27:46;;;;;;;20.77;15.80;;;17.90;99.90;;;;;;4997607;28;20302;-51
2021/07/11 00:30:15;;;;;;;19.30;15.50;;;18.00;99.90;;;;;;4995647;28;20740;-50
2021/07/11 00:32:42;;;;;;;19.53;16.20;;;17.90;99.90;;;;;;4997271;28;20280;-51
2021/07/11 00:35:10;;;;;;;19.67;15.87;;;18.00;99.90;;;;;;4996880;28;20300;-51
2021/07/11 00:37:37;;;;;;;19.90;14.37;;;18.00;99.90;;;;;;4995869;28;20206;-51
2021/07/11 00:40:06;;;;;;;17.27;14.07;;;17.80;99.90;;;;;;4995977;28;20208;-51
2021/07/11 00:42:33;;;;;;;20.50;15.60;;;17.70;99.90;;;;;;4995291;28;20632;-50
2021/07/11 00:45:00;;;;;;;21.13;15.17;;;17.60;99.90;;;;;;4995325;28;20318;-51
2021/07/11 00:47:27;;;;;;;23.17;16.13;;;17.70;99.90;;;;;;4994167;28;20308;-51
2021/07/11 00:49:53;;;;;;;20.13;16.27;;;17.80;99.90;;;;;;4994463;28;20295;-51
2021/07/11 00:52:20;;;;;;;20.10;16.30;;;17.80;99.90;;;;;;4995878;28;20300;-50
2021/07/11 00:54:47;;;;;;;21.33;15.57;;;17.70;99.90;;;;;;4997569;28;20239;-50
2021/07/11 00:57:14;;;;;;;20.90;16.23;;;17.60;99.90;;;;;;4994962;28;20664;-50
2021/07/11 00:59:41;;;;;;;21.50;15.80;;;17.40;99.90;;;;;;4999272;28;20343;-50
2021/07/11 01:02:18;;;;;;;21.87;16.50;;;17.40;99.90;;;;;;4996239;28;20237;-51
2021/07/11 01:04:51;;;;;;;21.73;15.67;;;17.50;99.90;;;;;;4994034;28;20302;-50
2021/07/11 01:07:28;;;;;;;20.97;15.97;;;17.70;99.90;;;;;;4996420;28;20622;-51
2021/07/11 01:10:02;;;;;;;20.67;16.30;;;17.70;99.90;;;;;;4996461;28;20308;-50
2021/07/11 01:12:32;;;;;;;21.77;16.37;;;17.60;99.90;;;;;;4995642;28;20854;-51
2021/07/11 01:15:00;;;;;;;20.77;16.67;;;17.50;99.90;;;;;;4997471;28;20209;-51
2021/07/11 01:17:29;;;;;;;22.27;17.00;;;17.40;99.90;;;;;;4995561;28;20295;-50
2021/07/11 01:20:09;;;;;;;21.83;16.07;;;17.40;99.90;;;;;;4996930;28;20201;-51
2021/07/11 01:22:42;;;;;;;21.17;15.87;;;17.60;99.90;;;;;;4994682;28;20318;-50
2021/07/11 01:25:12;;;;;;;22.83;16.03;;;17.70;99.90;;;;;;4995681;28;20236;-51
2021/07/11 01:27:41;;;;;;;23.20;17.33;;;17.80;99.90;;;;;;4996777;28;20298;-51
2021/07/11 01:30:09;;;;;;;23.80;17.50;;;17.80;99.90;;;;;;4996068;28;20276;-50
2021/07/11 01:32:37;;;;;;;26.63;17.30;;;17.70;99.90;;;;;;4994669;28;20306;-51
2021/07/11 01:35:05;;;;;;;23.77;18.17;;;17.80;99.90;;;;;;4994967;28;20228;-51
2021/07/11 01:37:34;;;;;;;23.63;17.30;;;17.80;99.90;;;;;;4994925;28;20283;-50
2021/07/11 01:40:01;;;;;;;26.63;17.30;;;17.80;99.90;;;;;;4995931;28;20245;-51
2021/07/11 01:42:29;;;;;;;25.87;17.97;;;17.70;99.90;;;;;;4995961;28;20262;-50
2021/07/11 01:44:57;;;;;;;28.83;19.73;;;17.70;99.90;;;;;;4997093;28;20242;-51
2021/07/11 01:47:24;;;;;;;26.60;18.70;;;17.70;99.90;;;;;;4995894;28;20672;-50
2021/07/11 01:49:52;;;;;;;26.70;17.77;;;17.60;99.90;;;;;;4993978;28;20304;-51
2021/07/11 01:52:19;;;;;;;25.23;17.73;;;17.50;99.90;;;;;;4993152;28;20640;-50
2021/07/11 01:54:46;;;;;;;24.27;17.53;;;17.50;99.90;;;;;;4994335;28;20245;-50
2021/07/11 01:57:14;;;;;;;25.93;19.10;;;17.50;99.90;;;;;;4994498;28;20677;-50
2021/07/11 01:59:41;;;;;;;26.73;18.33;;;17.50;99.90;;;;;;4994590;28;20213;-50
2021/07/11 02:02:08;;;;;;;28.30;18.87;;;17.70;99.90;;;;;;4994258;28;20637;-51
2021/07/11 02:04:34;;;;;;;27.23;19.33;;;17.80;99.90;;;;;;4995689;28;20219;-51
2021/07/11 02:07:01;;;;;;;29.57;19.67;;;17.70;99.90;;;;;;4993778;28;20218;-51
2021/07/11 02:09:28;;;;;;;26.53;19.33;;;17.50;99.90;;;;;;4996523;28;20271;-50
2021/07/11 02:11:58;;;;;;;25.97;18.60;;;17.50;99.90;;;;;;4993590;28;20323;-50
2021/07/11 02:14:29;;;;;;;24.23;18.17;;;17.60;99.90;;;;;;4993606;28;20595;-50
2021/07/11 02:17:02;;;;;;;28.77;20.03;;;17.50;99.90;;;;;;4992936;28;20295;-50
2021/07/11 02:19:32;;;;;;;28.70;19.23;;;17.50;99.90;;;;;;4994920;28;20277;-51
2021/07/11 02:22:00;;;;;;;28.50;19.97;;;17.40;99.90;;;;;;4992981;28;20334;-50
2021/07/11 02:24:27;;;;;;;30.13;19.73;;;17.40;99.90;;;;;;4993820;28;20235;-50
2021/07/11 02:26:54;;;;;;;28.47;20.40;;;17.30;99.90;;;;;;4992178;28;20767;-50
2021/07/11 02:29:25;;;;;;;27.57;18.23;;;17.20;99.90;;;;;;4995567;28;20339;-50
2021/07/11 02:31:51;;;;;;;29.83;19.80;;;17.20;99.90;;;;;;4992311;28;20726;-51
2021/07/11 02:34:18;;;;;;;27.63;20.27;;;17.30;99.90;;;;;;4996942;28;20276;-51
2021/07/11 02:36:48;;;;;;;31.30;20.83;;;17.50;99.90;;;;;;4992946;28;20209;-51
2021/07/11 02:39:17;;;;;;;33.93;20.83;;;17.50;99.90;;;;;;4993938;28;20198;-50
2021/07/11 02:41:54;;;;;;;31.17;19.90;;;17.60;99.90;;;;;;4994174;28;20247;-51
2021/07/11 02:44:21;;;;;;;31.30;22.60;;;17.80;99.90;;;;;;4994774;28;20244;-50
2021/07/11 02:46:56;;;;;;;28.30;21.07;;;17.90;99.90;;;;;;4993931;28;20212;-50
2021/07/11 02:49:25;;;;;;;27.23;19.43;;;17.90;99.90;;;;;;4995656;28;20323;-51
2021/07/11 02:51:54;;;;;;;32.77;20.87;;;17.80;99.90;;;;;;4995681;28;20259;-50
2021/07/11 02:54:28;;;;;;;29.90;20.97;;;17.80;99.90;;;;;;4994311;28;20853;-51
2021/07/11 02:57:00;;;;;;;29.13;20.17;;;17.90;99.90;;;;;;4993713;28;20565;-51
2021/07/11 02:59:28;;;;;;;32.53;20.93;;;17.90;99.90;;;;;;4994947;28;20200;-51
2021/07/11 03:02:03;;;;;;;30.07;19.93;;;17.90;99.90;;;;;;4993200;28;20209;-50
2021/07/11 03:04:33;;;;;;;29.77;20.70;;;17.70;99.90;;;;;;4995309;28;20470;-50
2021/07/11 03:07:00;;;;;;;29.43;20.07;;;17.50;99.90;;;;;;4997124;28;20212;-51
2021/07/11 03:09:27;;;;;;;32.93;21.30;;;17.50;99.90;;;;;;4998461;28;20563;-51
2021/07/11 03:11:55;;;;;;;31.93;21.47;;;17.30;99.90;;;;;;4995106;28;20272;-51
2021/07/11 03:14:24;;;;;;;31.23;21.53;;;17.20;99.90;;;;;;4996067;28;20325;-50
2021/07/11 03:16:55;;;;;;;34.50;21.67;;;17.30;99.90;;;;;;4997865;28;20233;-51
2021/07/11 03:19:25;;;;;;;28.47;20.13;;;17.30;99.90;;;;;;4997804;28;20261;-51
2021/07/11 03:21:53;;;;;;;32.53;21.43;;;17.30;99.90;;;;;;4996826;28;20280;-50
2021/07/11 03:24:25;;;;;;;34.30;21.83;;;17.60;99.90;;;;;;4997093;28;20295;-50
2021/07/11 03:26:54;;;;;;;36.97;22.57;;;17.70;99.90;;;;;;4995144;28;20307;-51
2021/07/11 03:29:38;;;;;;;32.37;20.27;;;17.80;99.90;;;;;;4999752;28;20624;-50
2021/07/11 03:32:08;;;;;;;32.33;21.33;;;17.80;99.90;;;;;;4998088;28;20320;-50
2021/07/11 03:34:35;;;;;;;31.70;20.83;;;17.70;99.90;;;;;;4996819;28;20228;-51
2021/07/11 03:37:08;;;;;;;32.80;22.00;;;17.60;99.90;;;;;;4997896;28;20770;-51
2021/07/11 03:39:40;;;;;;;30.47;21.03;;;17.80;99.90;;;;;;4999390;28;20230;-51
2021/07/11 03:42:08;;;;;;;33.00;21.57;;;17.80;99.90;;;;;;4995520;28;20217;-50
2021/07/11 03:44:37;;;;;;;29.10;19.27;;;17.80;99.90;;;;;;4997710;28;20584;-51
2021/07/11 03:47:06;;;;;;;34.27;20.33;;;17.90;99.90;;;;;;4999115;28;20321;-51
2021/07/11 03:49:33;;;;;;;28.33;19.93;;;17.90;99.90;;;;;;4996998;28;20374;-51
2021/07/11 03:52:03;;;;;;;30.67;20.57;;;18.00;99.90;;;;;;4997427;28;20697;-51
2021/07/11 03:54:36;;;;;;;30.27;20.83;;;18.00;99.90;;;;;;4996173;28;20204;-51
2021/07/11 03:57:04;;;;;;;32.93;20.97;;;18.00;99.90;;;;;;4997350;28;20297;-50
2021/07/11 03:59:33;;;;;;;32.43;21.23;;;17.90;99.90;;;;;;4998091;28;20299;-51
2021/07/11 04:02:03;;;;;;;31.17;21.23;;;17.90;99.90;;;;;;4998472;28;20290;-51
2021/07/11 04:04:32;;;;;;;33.73;21.03;;;17.80;99.90;;;;;;4999235;28;20240;-51
2021/07/11 04:07:00;;;;;;;33.77;21.23;;;17.70;99.90;;;;;;4998605;28;20232;-51
2021/07/11 04:09:28;;;;;;;29.57;20.03;;;17.60;99.90;;;;;;4996595;28;20208;-51
2021/07/11 04:11:55;;;;;;;32.00;20.97;;;17.60;99.90;;;;;;4997602;28;20256;-51
2021/07/11 04:14:22;;;;;;;31.03;21.30;;;17.60;99.90;;;;;;4996530;28;20223;-51
2021/07/11 04:16:54;;;;;;;36.87;21.47;;;17.60;99.90;;;;;;4997235;28;20237;-51
2021/07/11 04:19:27;;;;;;;30.37;20.93;;;17.60;99.90;;;;;;4997736;28;20823;-51
2021/07/11 04:21:55;;;;;;;33.77;22.20;;;17.70;99.90;;;;;;4996678;28;20587;-50
2021/07/11 04:24:25;;;;;;;30.03;20.00;;;17.70;99.90;;;;;;4999535;28;20695;-50
2021/07/11 04:26:55;;;;;;;33.27;21.17;;;17.60;99.90;;;;;;4995448;28;20289;-50
2021/07/11 04:29:23;;;;;;;34.07;22.07;;;17.40;99.90;;;;;;4997891;28;20257;-51
2021/07/11 04:31:49;;;;;;;34.93;22.23;;;17.30;99.90;;;;;;4995132;28;20252;-50
2021/07/11 04:34:27;;;;;;;34.17;22.50;;;17.30;99.90;;;;;;4996012;28;20240;-51
2021/07/11 04:36:55;;;;;;;31.77;22.00;;;17.30;99.90;;;;;;4997687;28;20242;-50
2021/07/11 04:39:22;;;;;;;37.53;22.90;;;17.20;99.90;;;;;;4995772;28;20712;-50
2021/07/11 04:41:49;;;;;;;37.27;23.40;;;17.20;99.90;;;;;;4995138;28;20315;-51
2021/07/11 04:44:17;;;;;;;34.50;22.83;;;17.20;99.90;;;;;;4996852;28;20239;-51
2021/07/11 04:46:44;;;;;;;35.97;22.00;;;17.10;99.90;;;;;;4994798;28;20304;-50
2021/07/11 04:49:11;;;;;;;33.00;21.73;;;17.10;99.90;;;;;;4997206;28;20931;-51
2021/07/11 04:51:39;;;;;;;35.20;22.10;;;17.40;99.90;;;;;;4995230;28;20346;-51
2021/07/11 04:54:08;;;;;;;39.90;23.23;;;17.50;99.90;;;;;;4994348;28;20365;-51
2021/07/11 04:56:36;;;;;;;36.60;22.53;;;17.60;99.90;;;;;;4995678;28;20263;-50
2021/07/11 04:59:03;;;;;;;35.83;22.27;;;17.70;99.90;;;;;;4997889;28;20343;-51
2021/07/11 05:01:30;;;;;;;31.07;20.60;;;17.80;99.90;;;;;;4995927;28;20307;-51
2021/07/11 05:03:58;;;;;;;32.50;21.33;;;17.90;99.90;;;;;;4997175;28;20207;-51
2021/07/11 05:06:24;;;;;;;33.13;22.50;;;18.00;99.90;;;;;;4997150;28;20599;-51
2021/07/11 05:08:52;;;;;;;38.50;21.87;;;18.10;99.90;;;;;;4996701;28;20216;-50
2021/07/11 05:11:19;;;;;;;32.83;20.97;;;18.10;99.90;;;;;;4996620;28;20314;-51
2021/07/11 05:13:45;;;;;;;34.43;22.27;;;18.20;99.90;;;;;;4995303;28;20291;-50
2021/07/11 05:16:12;;;;;;;35.60;21.30;;;18.30;99.90;;;;;;4996304;28;20325;-51
2021/07/11 05:18:39;;;;;;;35.83;22.90;;;18.10;99.90;;;;;;4997399;28;20194;-50
2021/07/11 05:21:06;;;;;;;36.07;22.60;;;18.00;99.90;;;;;;4997069;28;20404;-51
2021/07/11 05:23:33;;;;;;;33.40;22.20;;;17.90;99.90;;;;;;4994694;28;20293;-51
2021/07/11 05:26:00;;;;;;;38.10;22.93;;;17.70;99.90;;;;;;4995398;28;20259;-51
2021/07/11 05:28:27;;;;;;;37.17;23.17;;;17.70;99.90;;;;;;4994663;28;20766;-51
2021/07/11 05:30:53;;;;;;;37.00;24.53;;;17.70;99.90;;;;;;4994548;28;20259;-51
2021/07/11 05:33:20;;;;;;;34.63;23.20;;;17.50;99.90;;;;;;4992287;28;20767;-51
2021/07/11 05:35:47;;;;;;;35.10;22.97;;;17.50;99.90;;;;;;4995772;28;20244;-51
2021/07/11 05:38:14;;;;;;;35.93;23.80;;;17.40;99.90;;;;;;4993902;28;20724;-51
2021/07/11 05:40:41;;;;;;;39.57;24.80;;;17.40;99.90;;;;;;4994413;28;20197;-51
2021/07/11 05:43:08;;;;;;;38.07;24.40;;;17.50;99.90;;;;;;4995110;28;20311;-51
2021/07/11 05:45:35;;;;;;;38.13;24.07;;;17.40;99.90;;;;;;4995629;28;20324;-51
2021/07/11 05:48:02;;;;;;;39.60;23.90;;;17.40;99.90;;;;;;4994803;28;20291;-50
2021/07/11 05:50:29;;;;;;;39.13;23.83;;;17.40;99.90;;;;;;4993585;28;20233;-50
2021/07/11 05:52:55;;;;;;;39.03;23.40;;;17.50;99.90;;;;;;4995048;28;20631;-51
2021/07/11 05:55:22;;;;;;;46.17;25.50;;;17.50;99.90;;;;;;4994829;28;20297;-51
2021/07/11 05:57:49;;;;;;;40.13;23.97;;;17.40;99.90;;;;;;4995290;28;20272;-50
2021/07/11 06:00:16;;;;;;;40.40;25.50;;;17.40;99.90;;;;;;4989660;28;20298;-51
2021/07/11 06:02:43;;;;;;;44.70;25.60;;;17.40;99.90;;;;;;4994859;28;20296;-51
2021/07/11 06:05:11;;;;;;;45.53;25.20;;;17.40;99.90;;;;;;4995677;28;20308;-51
2021/07/11 06:07:38;;;;;;;47.57;26.10;;;17.40;99.90;;;;;;4994967;28;20246;-51
2021/07/11 06:10:06;;;;;;;50.47;28.00;;;17.50;99.90;;;;;;4997356;28;20237;-50
2021/07/11 06:12:34;;;;;;;46.00;26.47;;;17.70;99.90;;;;;;4991679;28;20245;-51
2021/07/11 06:15:03;;;;;;;46.33;27.63;;;17.60;99.90;;;;;;4995058;28;20197;-50
2021/07/11 06:17:33;;;;;;;46.53;26.23;;;17.60;99.90;;;;;;4994244;28;20241;-51
2021/07/11 06:20:05;;;;;;;46.43;25.30;;;17.60;99.90;;;;;;4994339;28;20315;-50
2021/07/11 06:22:32;;;;;;;50.20;26.30;;;17.70;99.90;;;;;;4994244;28;20381;-51
2021/07/11 06:25:06;;;;;;;50.83;27.30;;;17.80;99.90;;;;;;4997075;28;20335;-51
2021/07/11 06:27:38;;;;;;;51.63;26.67;;;17.80;99.90;;;;;;4994421;28;20214;-51
2021/07/11 06:30:09;;;;;;;49.37;27.57;;;17.80;99.90;;;;;;4995156;28;20242;-50
2021/07/11 06:32:37;;;;;;;49.90;28.00;;;17.80;99.90;;;;;;4995034;28;20367;-51
2021/07/11 06:35:06;;;;;;;53.07;27.23;;;18.00;99.90;;;;;;4994141;28;20599;-51
2021/07/11 06:37:33;;;;;;;48.27;27.07;;;18.00;99.90;;;;;;4994700;28;20258;-51
2021/07/11 06:40:00;;;;;;;51.13;26.83;;;18.00;99.90;;;;;;4994831;28;20324;-51
2021/07/11 06:42:27;;;;;;;43.57;25.30;;;18.10;99.90;;;;;;4990922;28;20240;-51
2021/07/11 06:44:54;;;;;;;44.37;26.47;;;18.10;99.90;;;;;;4994395;28;20619;-51
2021/07/11 06:47:21;;;;;;;45.77;27.07;;;18.10;99.90;;;;;;4995046;28;20603;-51
2021/07/11 06:49:47;;;;;;;43.93;25.20;;;18.00;99.90;;;;;;4994778;28;20328;-50
2021/07/11 06:52:14;;;;;;;42.83;24.13;;;17.90;99.90;;;;;;4995204;28;20316;-51
2021/07/11 06:54:41;;;;;;;44.53;26.10;;;17.90;99.90;;;;;;4994597;28;20306;-51
2021/07/11 06:57:08;;;;;;;42.63;24.37;;;18.00;99.90;;;;;;4993263;28;20325;-51
2021/07/11 06:59:35;;;;;;;49.30;26.23;;;18.10;99.90;;;;;;4995367;28;20645;-51
2021/07/11 07:02:02;;;;;;;46.20;25.37;;;18.10;99.90;;;;;;4993047;28;20243;-51
2021/07/11 07:04:29;;;;;;;41.23;24.70;;;18.00;99.90;;;;;;4993147;28;20206;-51
2021/07/11 07:06:56;;;;;;;44.87;24.80;;;18.00;99.90;;;;;;4995691;28;20250;-51
2021/07/11 07:09:27;;;;;;;46.73;26.17;;;18.00;99.90;;;;;;4994430;28;20695;-51
2021/07/11 07:11:53;;;;;;;44.93;24.80;;;18.10;99.90;;;;;;4994341;28;20254;-51
2021/07/11 07:14:20;;;;;;;46.53;25.53;;;18.10;99.90;;;;;;4996869;28;20295;-51
2021/07/11 07:16:47;;;;;;;40.07;24.63;;;17.90;99.90;;;;;;4994811;28;20287;-51
2021/07/11 07:19:14;;;;;;;44.97;25.73;;;17.70;99.90;;;;;;4993200;28;20212;-51
2021/07/11 07:21:41;;;;;;;46.03;26.23;;;17.70;99.90;;;;;;4993224;28;20235;-51
2021/07/11 07:24:07;;;;;;;44.83;26.03;;;17.70;99.90;;;;;;4995166;28;20227;-51
2021/07/11 07:26:34;;;;;;;47.47;25.73;;;17.60;99.90;;;;;;4993412;28;20215;-50
2021/07/11 07:29:02;;;;;;;47.73;24.60;;;17.70;99.90;;;;;;4996789;28;20210;-50
2021/07/11 07:31:28;;;;;;;47.42;29.30;;;17.70;99.90;;;;;;4994629;28;20541;-49
2021/07/11 07:33:56;;;;;;;44.87;24.50;;;17.60;99.90;;;;;;4994854;28;20722;-50
2021/07/11 07:36:23;;;;;;;42.93;24.80;;;17.70;99.90;;;;;;4997286;28;20313;-49
2021/07/11 07:38:50;;;;;;;43.00;24.23;;;17.70;99.90;;;;;;4997973;28;20209;-50
2021/07/11 07:41:17;;;;;;;41.25;24.63;;;17.80;99.90;;;;;;4993005;28;20556;-51
2021/07/11 07:43:44;;;;;;;42.03;23.37;;;17.70;99.90;;;;;;4996558;28;20342;-50
2021/07/11 07:46:10;;;;;;;34.37;21.87;;;17.80;99.90;;;;;;4993282;28;20640;-51
2021/07/11 07:48:37;;;;;;;37.90;21.17;;;17.80;99.90;;;;;;4987778;28;20216;-51
2021/07/11 07:51:04;;;;;;;37.70;21.23;;;17.80;99.90;;;;;;4992814;28;20230;-51
2021/07/11 07:53:31;;;;;;;31.80;20.80;;;17.90;99.90;;;;;;4993634;28;20223;-50
2021/07/11 07:55:58;;;;;;;32.00;19.60;;;18.00;99.90;;;;;;4994422;28;20196;-51
2021/07/11 07:58:25;;;;;;;36.80;20.83;;;18.00;99.90;;;;;;4997518;28;20674;-51
2021/07/11 08:00:54;;;;;;;35.37;22.10;;;18.20;99.90;;;;;;4994917;28;20309;-51
2021/07/11 08:03:21;;;;;;;30.97;18.90;;;18.10;99.90;;;;;;4996978;28;20321;-51
2021/07/11 08:05:48;;;;;;;27.80;17.70;;;18.00;99.90;;;;;;4995538;28;20206;-57
2021/07/11 08:08:15;;;;;;;26.83;16.93;;;18.00;99.90;;;;;;4993883;28;20775;-57
2021/07/11 08:10:42;;;;;;;21.87;14.43;;;18.30;99.90;;;;;;4979291;28;20668;-57
2021/07/11 08:13:09;;;;;;;20.63;15.03;;;18.80;99.90;;;;;;4995997;28;20246;-58
2021/07/11 08:15:36;;;;;;;18.53;13.43;;;19.10;99.90;;;;;;4997545;28;20517;-57
2021/07/11 08:18:05;;;;;;;16.40;11.97;;;19.40;99.90;;;;;;4995146;28;20212;-57
2021/07/11 08:20:32;;;;;;;20.20;12.90;;;19.80;99.90;;;;;;4994867;28;20296;-57
2021/07/11 08:22:59;;;;;;;14.03;10.93;;;20.30;99.90;;;;;;4992077;28;21269;-57
2021/07/11 08:25:26;;;;;;;14.13;10.37;;;20.60;99.90;;;;;;4995191;28;20234;-57
2021/07/11 08:27:53;;;;;;;15.37;9.67;;;20.80;99.90;;;;;;4996100;28;20629;-57
2021/07/11 08:30:20;;;;;;;13.23;9.87;;;21.00;99.90;;;;;;4995483;28;20230;-57
2021/07/11 08:32:47;;;;;;;9.13;8.07;;;21.30;99.90;;;;;;4996157;28;20249;-57
2021/07/11 08:35:14;;;;;;;10.40;8.13;;;21.70;99.90;;;;;;4994190;28;20380;-58
2021/07/11 08:37:41;;;;;;;9.63;7.53;;;22.00;99.90;;;;;;4995176;28;20376;-56
2021/07/11 08:40:09;;;;;;;9.57;7.40;;;22.00;99.90;;;;;;4996215;28;20268;-56
2021/07/11 08:42:40;;;;;;;8.00;6.57;;;22.20;99.90;;;;;;4996063;28;20563;-56
2021/07/11 08:45:08;;;;;;;7.50;5.93;;;22.10;82.50;;;;;;4996519;28;20300;-56
2021/07/11 08:47:37;;;;;;;8.23;5.97;;;22.20;40.60;;;;;;4999484;28;20205;-56
2021/07/11 08:50:09;;;;;;;5.73;4.73;;;22.20;1.00;;;;;;4995028;28;20256;-56
2021/07/11 08:52:37;;;;;;;8.37;6.17;;;22.50;1.00;;;;;;4994347;28;20249;-56
2021/07/11 08:55:32;;;;;;;8.60;6.97;;;22.60;1.00;;;;;;4996274;28;20201;-56
2021/07/11 08:58:01;;;;;;;11.10;7.37;;;22.30;1.00;;;;;;4995346;28;20324;-56
2021/07/11 09:00:29;;;;;;;9.17;6.70;;;22.60;1.00;;;;;;4995740;28;20236;-56
2021/07/11 09:02:56;;;;;;;9.13;7.27;;;22.60;1.00;;;;;;4992226;28;20249;-56
2021/07/11 09:05:29;;;;;;;10.17;7.80;;;22.70;1.00;;;;;;4991633;28;20316;-56
2021/07/11 09:08:22;;;;;;;10.53;8.30;;;22.90;1.00;;;;;;5005755;28;20659;-56
2021/07/11 09:10:57;;;;;;;10.47;8.13;;;23.10;1.00;;;;;;4993933;28;20230;-56
2021/07/11 09:13:32;;;;;;;13.27;10.50;;;23.30;99.90;;;;;;4991519;28;20591;-56
2021/07/11 09:16:00;;;;;;;12.13;8.10;;;23.40;99.90;;;;;;4995368;28;20224;-56
2021/07/11 09:18:32;;;;;;;8.57;7.20;;;23.20;1.00;;;;;;4994236;28;20202;-56
2021/07/11 09:21:02;;;;;;;9.10;7.90;;;23.10;99.90;;;;;;4995010;28;20217;-56
2021/07/11 09:23:33;;;;;;;7.77;6.37;;;23.50;1.00;;;;;;4994366;28;20244;-56
2021/07/11 09:26:09;;;;;;;9.30;7.27;;;23.10;8.80;;;;;;4993252;28;20979;-56
2021/07/11 09:28:46;;;;;;;9.27;7.23;;;22.90;99.90;;;;;;4993982;28;20231;-56
2021/07/11 09:31:18;;;;;;;7.77;6.90;;;23.30;99.90;;;;;;4991449;28;20264;-56
2021/07/11 09:33:56;;;;;;;9.07;6.53;;;22.90;1.00;;;;;;4993521;28;20223;-56
2021/07/11 09:36:24;;;;;;;5.73;4.73;;;22.70;1.00;;;;;;4991470;28;20292;-56
2021/07/11 09:38:58;;;;;;;6.13;5.50;;;23.30;43.80;;;;;;4991069;28;20699;-56
2021/07/11 09:41:33;;;;;;;8.90;6.90;;;23.60;1.00;;;;;;4993052;28;20246;-56
2021/07/11 09:44:04;;;;;;;7.87;6.23;;;22.90;99.90;;;;;;4994953;28;20221;-58
2021/07/11 09:46:34;;;;;;;7.10;5.53;;;23.00;1.00;;;;;;5007356;28;20295;-56
2021/07/11 09:49:03;;;;;;;10.30;6.13;;;23.40;99.90;;;;;;4991279;28;20212;-56
2021/07/11 09:51:30;;;;;;;11.47;7.70;;;23.40;1.00;;;;;;4993126;28;20212;-56
2021/07/11 09:54:12;;;;;;;8.70;7.60;;;22.70;99.90;;;;;;4992871;28;20311;-56
2021/07/11 09:56:46;;;;;;;7.83;6.27;;;22.40;99.90;;;;;;4992627;28;20528;-56
2021/07/11 09:59:15;;;;;;;10.30;7.00;;;22.40;1.00;;;;;;4994574;28;20225;-56
2021/07/11 10:01:44;;;;;;;10.60;7.57;;;22.30;1.00;;;;;;4996678;28;20297;-56
2021/07/11 10:04:11;;;;;;;8.50;7.43;;;22.20;1.00;;;;;;4996368;28;20260;-56
2021/07/11 10:06:40;;;;;;;8.60;6.90;;;22.40;1.00;;;;;;4995701;28;21460;-56
2021/07/11 10:09:09;;;;;;;6.23;5.60;;;22.90;1.00;;;;;;4999172;28;20232;-56
2021/07/11 10:11:37;;;;;;;7.90;6.07;;;23.20;11.40;;;;;;4994249;28;20259;-56
2021/07/11 10:14:04;;;;;;;6.03;5.00;;;23.10;1.00;;;;;;4996407;28;20214;-56
2021/07/11 10:16:31;;;;;;;6.83;5.70;;;23.80;1.00;;;;;;4992359;28;21480;-56
2021/07/11 10:19:00;;;;;;;5.23;4.73;;;23.90;1.00;;;;;;4994691;28;20201;-56
2021/07/11 10:21:33;;;;;;;5.67;4.93;;;23.60;1.00;;;;;;4997079;28;20198;-56
2021/07/11 10:24:01;;;;;;;5.03;4.43;;;23.10;1.00;;;;;;4999785;28;20227;-56
2021/07/11 10:26:40;;;;;;;6.20;5.10;;;23.30;99.90;;;;;;4994448;28;20292;-56
2021/07/11 10:29:13;;;;;;;5.20;4.17;;;23.30;1.00;;;;;;4996665;28;20264;-56
2021/07/11 10:31:46;;;;;;;4.77;4.17;;;22.80;1.00;;;;;;4993641;28;20277;-56
2021/07/11 10:34:33;;;;;;;5.47;4.30;;;22.30;1.00;;;;;;4996458;28;20221;-56
2021/07/11 10:37:12;;;;;;;3.47;3.17;;;22.30;1.00;;;;;;4994727;28;20820;-56
2021/07/11 10:39:38;;;;;;;3.47;2.97;;;22.40;1.00;;;;;;4998666;28;20244;-56
2021/07/11 10:42:08;;;;;;;5.57;3.80;;;22.70;1.00;;;;;;4997168;28;20197;-56
2021/07/11 10:44:35;;;;;;;4.87;4.37;;;23.20;99.90;;;;;;4997070;28;20484;-56
2021/07/11 10:47:06;;;;;;;5.17;4.67;;;22.90;1.00;;;;;;4986865;28;20228;-56
2021/07/11 10:49:37;;;;;;;7.03;4.63;;;22.60;1.00;;;;;;4988050;28;20207;-56
2021/07/11 10:52:06;;;;;;;5.00;4.50;;;22.50;74.00;;;;;;4989961;28;20216;-56
2021/07/11 10:54:34;;;;;;;4.23;3.10;;;22.30;1.00;;;;;;4992368;28;20356;-57
2021/07/11 10:57:10;;;;;;;4.30;3.03;;;22.40;1.00;;;;;;4990402;28;20638;-56
2021/07/11 10:59:39;;;;;;;3.20;2.90;;;22.40;99.90;;;;;;4994589;28;20295;-56
2021/07/11 11:02:15;;;;;;;2.23;2.03;;;22.30;1.00;;;;;;4994065;28;20200;-56
2021/07/11 11:04:44;;;;;;;2.40;2.20;;;22.10;1.00;;;;;;4992171;28;20289;-56
2021/07/11 11:07:15;;;;;;;3.17;2.87;;;22.00;1.00;;;;;;4992728;28;20208;-56
2021/07/11 11:09:46;;;;;;;3.33;2.40;;;22.10;1.00;;;;;;4992195;28;20332;-56
2021/07/11 11:12:26;;;;;;;2.77;2.30;;;21.90;1.00;;;;;;4992459;28;20254;-56
2021/07/11 11:15:12;;;;;;;2.53;2.23;;;22.20;91.60;;;;;;4993336;28;20319;-56
2021/07/11 11:17:39;;;;;;;2.50;2.13;;;22.20;99.90;;;;;;4995967;28;20329;-56
2021/07/11 11:20:12;;;;;;;2.97;2.63;;;22.80;1.00;;;;;;4995229;28;20204;-56
2021/07/11 11:22:49;;;;;;;2.60;2.30;;;22.40;1.00;;;;;;4993485;28;20232;-56
2021/07/11 11:25:19;;;;;;;2.77;2.40;;;22.40;1.00;;;;;;4994759;28;20276;-56
2021/07/11 11:27:46;;;;;;;3.20;2.87;;;22.50;99.90;;;;;;4996650;28;20328;-56
2021/07/11 11:30:17;;;;;;;4.73;2.90;;;22.40;1.00;;;;;;4997502;28;20622;-56
2021/07/11 11:32:59;;;;;;;3.23;2.77;;;22.20;1.00;;;;;;4995535;28;20229;-56
2021/07/11 11:35:29;;;;;;;6.27;3.43;;;22.00;1.00;;;;;;4997663;28;20255;-56
2021/07/11 11:37:59;;;;;;;3.30;3.00;;;22.00;1.00;;;;;;4995425;28;20238;-56
2021/07/11 11:40:28;;;;;;;5.13;3.37;;;22.00;99.90;;;;;;4998960;28;20242;-56
2021/07/11 11:42:59;;;;;;;4.53;3.53;;;22.00;99.90;;;;;;4998878;28;20312;-56
2021/07/11 11:45:32;;;;;;;3.23;2.93;;;22.00;99.90;;;;;;4996883;28;20522;-56
2021/07/11 11:48:07;;;;;;;4.93;3.87;;;22.00;99.90;;;;;;4997971;28;20209;-56
2021/07/11 11:50:39;;;;;;;4.43;3.40;;;22.30;1.00;;;;;;4996883;28;20205;-56
2021/07/11 11:53:12;;;;;;;4.57;3.30;;;22.40;99.90;;;;;;4995191;28;20218;-56
2021/07/11 11:55:49;;;;;;;4.23;3.43;;;22.50;1.00;;;;;;4992690;28;20315;-56
2021/07/11 11:58:24;;;;;;;4.70;4.17;;;22.60;1.00;;;;;;4995388;28;20318;-56
2021/07/11 12:01:05;;;;;;;4.73;3.43;;;22.20;1.00;;;;;;4997007;28;20205;-56
2021/07/11 12:03:36;;;;;;;4.73;4.00;;;22.20;1.00;;;;;;4998801;28;20288;-56
2021/07/11 12:06:04;;;;;;;7.13;3.30;;;22.00;99.90;;;;;;4999883;28;20205;-56
2021/07/11 12:08:44;;;;;;;4.10;3.47;;;22.10;1.00;;;;;;4998509;28;20288;-56
2021/07/11 12:11:13;;;;;;;4.57;3.30;;;22.10;1.00;;;;;;4996728;28;20225;-56
2021/07/11 12:13:40;;;;;;;4.10;3.37;;;22.20;1.00;;;;;;4997140;28;20293;-56
2021/07/11 12:16:12;;;;;;;5.93;3.70;;;22.30;1.00;;;;;;4996039;28;20206;-56
2021/07/11 12:18:52;;;;;;;4.33;3.93;;;22.20;99.90;;;;;;4997366;28;20206;-56
2021/07/11 12:21:22;;;;;;;5.33;4.60;;;22.40;1.00;;;;;;4997770;28;20277;-56
2021/07/11 12:23:59;;;;;;;4.83;4.30;;;22.30;99.90;;;;;;4997723;28;20310;-56
2021/07/11 12:26:27;;;;;;;6.60;4.63;;;22.30;1.00;;;;;;4997811;28;20322;-56
2021/07/11 12:28:55;;;;;;;5.77;4.63;;;22.40;1.00;;;;;;4998427;28;20212;-56
2021/07/11 12:31:29;;;;;;;4.93;4.43;;;22.70;99.90;;;;;;4997308;28;20261;-56
2021/07/11 12:34:07;;;;;;;6.30;4.90;;;23.10;1.00;;;;;;4997557;28;20356;-56
2021/07/11 12:36:38;;;;;;;6.60;5.40;;;23.30;1.00;;;;;;4999984;28;20264;-57
2021/07/11 12:39:25;;;;;;;6.33;4.80;;;23.40;99.90;;;;;;4997897;28;20318;-57
2021/07/11 12:41:53;;;;;;;6.87;4.80;;;22.70;99.90;;;;;;4997916;28;20660;-56
2021/07/11 12:44:37;;;;;;;6.93;4.67;;;22.70;1.00;;;;;;4999232;28;20206;-57
2021/07/11 12:47:10;;;;;;;5.53;4.70;;;23.00;1.00;;;;;;4995921;28;20216;-57